CGZMA CYXU-CYKF
Flight info
| Callsign | CGZMA |
|---|---|
| Flight time | 0h 41m |
| Altitude | 3000 |
| Route | CYXU/33 VFR WESTBOUND |
| Aircraft | C208 |
Departure
| Time | 2026-05-07 01:12 |
|---|---|
| Airport | London International Airport (CYXU) |
Arrival
| Time | 2026-05-07 01:54 |
|---|---|
| Airport | Region of Waterloo International Airport (CYKF) |
| Time | Latitude | Longitude | Altitude | Speed | Heading |
|---|---|---|---|---|---|
| 2026-05-07 01:12 | 43.11024 | -81.29916 | 4534 ft | 147 kts | 301° |
| 2026-05-07 01:12 | 43.11610 | -81.31089 | 4483 ft | 150 kts | 303° |
| 2026-05-07 01:12 | 43.12019 | -81.31869 | 4500 ft | 148 kts | 304° |
| 2026-05-07 01:12 | 43.12607 | -81.33016 | 4518 ft | 147 kts | 301° |
| 2026-05-07 01:13 | 43.13170 | -81.34191 | 4517 ft | 148 kts | 301° |
| 2026-05-07 01:13 | 43.13730 | -81.35369 | 4517 ft | 148 kts | 301° |
| 2026-05-07 01:13 | 43.14292 | -81.36547 | 4516 ft | 148 kts | 301° |
| 2026-05-07 01:13 | 43.14854 | -81.37729 | 4521 ft | 148 kts | 301° |
| 2026-05-07 01:14 | 43.15417 | -81.38908 | 4524 ft | 149 kts | 301° |
| 2026-05-07 01:14 | 43.15980 | -81.40095 | 4520 ft | 152 kts | 301° |
| 2026-05-07 01:14 | 43.16567 | -81.41325 | 4527 ft | 153 kts | 301° |
| 2026-05-07 01:14 | 43.17147 | -81.42545 | 4527 ft | 153 kts | 301° |
| 2026-05-07 01:15 | 43.17729 | -81.43764 | 4523 ft | 153 kts | 301° |
| 2026-05-07 01:15 | 43.18313 | -81.44990 | 4527 ft | 153 kts | 301° |
| 2026-05-07 01:15 | 43.18897 | -81.46214 | 4524 ft | 153 kts | 301° |
| 2026-05-07 01:15 | 43.19480 | -81.47436 | 4527 ft | 153 kts | 302° |
| 2026-05-07 01:16 | 43.20065 | -81.48661 | 4522 ft | 153 kts | 301° |
| 2026-05-07 01:16 | 43.20650 | -81.49882 | 4524 ft | 153 kts | 302° |
| 2026-05-07 01:16 | 43.21236 | -81.51106 | 4526 ft | 153 kts | 301° |
| 2026-05-07 01:16 | 43.21821 | -81.52329 | 4519 ft | 153 kts | 302° |
| 2026-05-07 01:17 | 43.22397 | -81.53535 | 4523 ft | 153 kts | 301° |
| 2026-05-07 01:17 | 43.22981 | -81.54756 | 4519 ft | 153 kts | 302° |
| 2026-05-07 01:17 | 43.23563 | -81.55978 | 4513 ft | 154 kts | 301° |
| 2026-05-07 01:17 | 43.24156 | -81.57219 | 4428 ft | 157 kts | 302° |
| 2026-05-07 01:18 | 43.24746 | -81.58455 | 4323 ft | 153 kts | 302° |
| 2026-05-07 01:18 | 43.25328 | -81.59669 | 4213 ft | 151 kts | 302° |
| 2026-05-07 01:18 | 43.25900 | -81.60867 | 4107 ft | 150 kts | 302° |
| 2026-05-07 01:18 | 43.26471 | -81.62059 | 3998 ft | 150 kts | 302° |
| 2026-05-07 01:19 | 43.27042 | -81.63258 | 3870 ft | 151 kts | 302° |
| 2026-05-07 01:19 | 43.27620 | -81.64468 | 3702 ft | 149 kts | 302° |
| 2026-05-07 01:19 | 43.28174 | -81.65639 | 3555 ft | 145 kts | 302° |
| 2026-05-07 01:19 | 43.28730 | -81.66798 | 3372 ft | 145 kts | 302° |
| 2026-05-07 01:20 | 43.29289 | -81.67957 | 3185 ft | 146 kts | 302° |
| 2026-05-07 01:20 | 43.29852 | -81.69121 | 3003 ft | 147 kts | 302° |
| 2026-05-07 01:20 | 43.30418 | -81.70292 | 2811 ft | 148 kts | 302° |
| 2026-05-07 01:20 | 43.30994 | -81.71483 | 2603 ft | 151 kts | 302° |
| 2026-05-07 01:21 | 43.31395 | -81.72796 | 2386 ft | 151 kts | 282° |
| 2026-05-07 01:21 | 43.31536 | -81.74219 | 2164 ft | 151 kts | 271° |
| 2026-05-07 01:21 | 43.31915 | -81.75560 | 1961 ft | 154 kts | 301° |
| 2026-05-07 01:21 | 43.32461 | -81.76831 | 1753 ft | 155 kts | 306° |
| 2026-05-07 01:22 | 43.33224 | -81.77874 | 1544 ft | 156 kts | 327° |
| 2026-05-07 01:22 | 43.34224 | -81.78425 | 1332 ft | 155 kts | 345° |
| 2026-05-07 01:22 | 43.35245 | -81.78678 | 1100 ft | 136 kts | 351° |
| 2026-05-07 01:22 | 43.36053 | -81.78930 | 972 ft | 103 kts | 340° |
| 2026-05-07 01:23 | 43.36640 | -81.79236 | 834 ft | 83 kts | 340° |
| 2026-05-07 01:23 | 43.37132 | -81.79470 | 748 ft | 70 kts | 341° |
| 2026-05-07 01:23 | 43.37586 | -81.79677 | 656 ft | 68 kts | 340° |
| 2026-05-07 01:23 | 43.38017 | -81.79923 | 600 ft | 63 kts | 334° |
| 2026-05-07 01:24 | 43.38378 | -81.80173 | 587 ft | 53 kts | 333° |
| 2026-05-07 01:24 | 43.38681 | -81.80357 | 587 ft | 42 kts | 351° |
| 2026-05-07 01:24 | 43.38937 | -81.80322 | 587 ft | 43 kts | 0° |
| 2026-05-07 01:24 | 43.39492 | -81.80390 | 813 ft | 103 kts | 352° |
| 2026-05-07 01:25 | 43.40224 | -81.80539 | 1026 ft | 96 kts | 351° |
| 2026-05-07 01:25 | 43.40850 | -81.80683 | 896 ft | 90 kts | 347° |
| 2026-05-07 01:25 | 43.41413 | -81.80986 | 741 ft | 84 kts | 336° |
| 2026-05-07 01:25 | 43.41927 | -81.81328 | 643 ft | 78 kts | 335° |
| 2026-05-07 01:26 | 43.42384 | -81.81640 | 587 ft | 67 kts | 334° |
| 2026-05-07 01:26 | 43.42535 | -81.81724 | 586 ft | 9 kts | 2° |
| 2026-05-07 01:26 | 43.42718 | -81.81769 | 588 ft | 63 kts | 345° |
| 2026-05-07 01:26 | 43.43281 | -81.82038 | 1029 ft | 97 kts | 340° |
| 2026-05-07 01:27 | 43.43938 | -81.82377 | 1542 ft | 107 kts | 336° |
| 2026-05-07 01:27 | 43.44398 | -81.83190 | 1860 ft | 119 kts | 274° |
| 2026-05-07 01:27 | 43.44004 | -81.84187 | 1955 ft | 139 kts | 210° |
| 2026-05-07 01:27 | 43.43004 | -81.84139 | 2010 ft | 151 kts | 162° |
| 2026-05-07 01:28 | 43.42014 | -81.83649 | 1525 ft | 150 kts | 163° |
| 2026-05-07 01:28 | 43.40946 | -81.83279 | 804 ft | 149 kts | 167° |
| 2026-05-07 01:28 | 43.40074 | -81.82922 | 696 ft | 114 kts | 163° |
| 2026-05-07 01:28 | 43.39421 | -81.82629 | 652 ft | 86 kts | 161° |
| 2026-05-07 01:29 | 43.38900 | -81.82376 | 593 ft | 74 kts | 160° |
| 2026-05-07 01:29 | 43.38507 | -81.82182 | 587 ft | 51 kts | 159° |
| 2026-05-07 01:29 | 43.38383 | -81.82116 | 587 ft | 51 kts | 157° |
| 2026-05-07 01:29 | 43.38083 | -81.81914 | 588 ft | 69 kts | 147° |
| 2026-05-07 01:30 | 43.37526 | -81.81329 | 863 ft | 120 kts | 138° |
| 2026-05-07 01:30 | 43.36897 | -81.80513 | 1303 ft | 128 kts | 136° |
| 2026-05-07 01:30 | 43.36366 | -81.79548 | 1770 ft | 125 kts | 120° |
| 2026-05-07 01:30 | 43.35971 | -81.78440 | 2059 ft | 134 kts | 114° |
| 2026-05-07 01:31 | 43.35955 | -81.77169 | 2404 ft | 138 kts | 78° |
| 2026-05-07 01:31 | 43.36167 | -81.75860 | 2711 ft | 140 kts | 81° |
| 2026-05-07 01:31 | 43.36308 | -81.74543 | 3069 ft | 140 kts | 85° |
| 2026-05-07 01:31 | 43.36379 | -81.73208 | 3418 ft | 142 kts | 88° |
| 2026-05-07 01:32 | 43.36443 | -81.71838 | 3734 ft | 144 kts | 88° |
| 2026-05-07 01:32 | 43.36531 | -81.70541 | 4328 ft | 128 kts | 83° |
| 2026-05-07 01:32 | 43.36652 | -81.69350 | 4825 ft | 128 kts | 82° |
| 2026-05-07 01:32 | 43.36783 | -81.68137 | 5289 ft | 127 kts | 80° |
| 2026-05-07 01:33 | 43.36894 | -81.66873 | 5519 ft | 148 kts | 86° |
| 2026-05-07 01:33 | 43.36963 | -81.65348 | 5512 ft | 170 kts | 86° |
| 2026-05-07 01:33 | 43.37074 | -81.63680 | 5533 ft | 179 kts | 84° |
| 2026-05-07 01:33 | 43.37219 | -81.61956 | 5532 ft | 184 kts | 83° |
| 2026-05-07 01:34 | 43.37360 | -81.60197 | 5530 ft | 186 kts | 84° |
| 2026-05-07 01:34 | 43.37494 | -81.58422 | 5525 ft | 187 kts | 84° |
| 2026-05-07 01:34 | 43.37630 | -81.56642 | 5529 ft | 187 kts | 84° |
| 2026-05-07 01:34 | 43.37763 | -81.54886 | 5710 ft | 177 kts | 84° |
| 2026-05-07 01:35 | 43.37888 | -81.53300 | 6196 ft | 159 kts | 84° |
| 2026-05-07 01:35 | 43.37999 | -81.51895 | 6822 ft | 137 kts | 83° |
| 2026-05-07 01:35 | 43.38104 | -81.50597 | 7259 ft | 138 kts | 83° |
| 2026-05-07 01:35 | 43.38209 | -81.49241 | 7508 ft | 154 kts | 84° |
| 2026-05-07 01:36 | 43.38321 | -81.47664 | 7521 ft | 175 kts | 84° |
| 2026-05-07 01:36 | 43.38447 | -81.45938 | 7525 ft | 186 kts | 84° |
| 2026-05-07 01:36 | 43.38578 | -81.44140 | 7527 ft | 192 kts | 84° |
| 2026-05-07 01:36 | 43.38716 | -81.42307 | 7526 ft | 194 kts | 84° |
| 2026-05-07 01:37 | 43.38853 | -81.40458 | 7526 ft | 195 kts | 84° |
| 2026-05-07 01:37 | 43.38993 | -81.38604 | 7527 ft | 195 kts | 84° |
| 2026-05-07 01:37 | 43.39132 | -81.36741 | 7525 ft | 196 kts | 84° |
| 2026-05-07 01:37 | 43.39268 | -81.34906 | 7526 ft | 196 kts | 84° |
| 2026-05-07 01:38 | 43.39406 | -81.33042 | 7525 ft | 196 kts | 84° |
| 2026-05-07 01:38 | 43.39544 | -81.31173 | 7527 ft | 197 kts | 84° |
| 2026-05-07 01:38 | 43.39683 | -81.29302 | 7525 ft | 197 kts | 84° |
| 2026-05-07 01:38 | 43.39821 | -81.27428 | 7527 ft | 197 kts | 84° |
| 2026-05-07 01:39 | 43.39960 | -81.25551 | 7527 ft | 199 kts | 83° |
| 2026-05-07 01:39 | 43.40101 | -81.23636 | 7528 ft | 204 kts | 84° |
| 2026-05-07 01:39 | 43.40243 | -81.21702 | 7526 ft | 202 kts | 84° |
| 2026-05-07 01:39 | 43.40382 | -81.19789 | 7526 ft | 200 kts | 84° |
| 2026-05-07 01:40 | 43.40521 | -81.17891 | 7524 ft | 199 kts | 84° |
| 2026-05-07 01:40 | 43.40659 | -81.16004 | 7524 ft | 198 kts | 84° |
| 2026-05-07 01:40 | 43.40796 | -81.14118 | 7521 ft | 198 kts | 84° |
| 2026-05-07 01:40 | 43.40933 | -81.12233 | 7520 ft | 198 kts | 83° |
| 2026-05-07 01:41 | 43.41069 | -81.10351 | 7520 ft | 198 kts | 84° |
| 2026-05-07 01:41 | 43.41206 | -81.08471 | 7521 ft | 198 kts | 84° |
| 2026-05-07 01:41 | 43.41341 | -81.06585 | 7520 ft | 198 kts | 84° |
| 2026-05-07 01:41 | 43.41477 | -81.04700 | 7517 ft | 198 kts | 84° |
| 2026-05-07 01:42 | 43.41611 | -81.02815 | 7519 ft | 198 kts | 84° |
| 2026-05-07 01:42 | 43.41746 | -81.00934 | 7519 ft | 198 kts | 84° |
| 2026-05-07 01:42 | 43.41880 | -80.99051 | 7519 ft | 198 kts | 84° |
| 2026-05-07 01:42 | 43.42014 | -80.97165 | 7521 ft | 198 kts | 84° |
| 2026-05-07 01:43 | 43.42148 | -80.95279 | 7516 ft | 198 kts | 84° |
| 2026-05-07 01:43 | 43.42281 | -80.93394 | 7516 ft | 198 kts | 84° |
| 2026-05-07 01:43 | 43.42415 | -80.91498 | 7410 ft | 200 kts | 84° |
| 2026-05-07 01:43 | 43.42543 | -80.89612 | 7259 ft | 197 kts | 83° |
| 2026-05-07 01:44 | 43.42675 | -80.87744 | 7105 ft | 196 kts | 83° |
| 2026-05-07 01:44 | 43.42807 | -80.85883 | 6952 ft | 195 kts | 83° |
| 2026-05-07 01:44 | 43.42938 | -80.84031 | 6801 ft | 194 kts | 83° |
| 2026-05-07 01:44 | 43.43066 | -80.82181 | 6645 ft | 194 kts | 83° |
| 2026-05-07 01:45 | 43.43195 | -80.80336 | 6500 ft | 194 kts | 83° |
| 2026-05-07 01:45 | 43.43323 | -80.78487 | 6343 ft | 194 kts | 83° |
| 2026-05-07 01:45 | 43.43451 | -80.76639 | 6182 ft | 194 kts | 83° |
| 2026-05-07 01:45 | 43.43578 | -80.74800 | 6019 ft | 193 kts | 83° |
| 2026-05-07 01:46 | 43.43704 | -80.72973 | 5859 ft | 192 kts | 83° |
| 2026-05-07 01:46 | 43.43828 | -80.71154 | 5700 ft | 190 kts | 83° |
| 2026-05-07 01:46 | 43.43953 | -80.69343 | 5542 ft | 189 kts | 83° |
| 2026-05-07 01:46 | 43.44076 | -80.67548 | 5387 ft | 188 kts | 83° |
| 2026-05-07 01:47 | 43.44198 | -80.65761 | 5232 ft | 187 kts | 83° |
| 2026-05-07 01:47 | 43.44319 | -80.63980 | 5077 ft | 187 kts | 83° |
| 2026-05-07 01:47 | 43.44438 | -80.62226 | 4911 ft | 186 kts | 83° |
| 2026-05-07 01:47 | 43.44559 | -80.60458 | 4760 ft | 185 kts | 82° |
| 2026-05-07 01:48 | 43.44679 | -80.58678 | 4598 ft | 184 kts | 83° |
| 2026-05-07 01:48 | 43.44797 | -80.56932 | 4436 ft | 183 kts | 83° |
| 2026-05-07 01:48 | 43.44914 | -80.55195 | 4273 ft | 182 kts | 83° |
| 2026-05-07 01:48 | 43.45029 | -80.53474 | 4064 ft | 179 kts | 83° |
| 2026-05-07 01:49 | 43.45132 | -80.51836 | 3802 ft | 170 kts | 82° |
| 2026-05-07 01:49 | 43.45242 | -80.50243 | 3540 ft | 165 kts | 83° |
| 2026-05-07 01:49 | 43.45350 | -80.48668 | 3279 ft | 162 kts | 83° |
| 2026-05-07 01:49 | 43.45451 | -80.47160 | 3018 ft | 159 kts | 84° |
| 2026-05-07 01:50 | 43.45551 | -80.45660 | 2753 ft | 156 kts | 84° |
| 2026-05-07 01:50 | 43.45649 | -80.44179 | 2497 ft | 155 kts | 85° |
| 2026-05-07 01:50 | 43.45744 | -80.42726 | 2285 ft | 144 kts | 84° |
| 2026-05-07 01:50 | 43.45799 | -80.41841 | 2154 ft | 131 kts | 86° |
| 2026-05-07 01:51 | 43.45462 | -80.40413 | 1958 ft | 111 kts | 127° |
| 2026-05-07 01:51 | 43.45022 | -80.39636 | 1895 ft | 91 kts | 130° |
| 2026-05-07 01:51 | 43.44647 | -80.39018 | 1814 ft | 92 kts | 127° |
| 2026-05-07 01:51 | 43.44279 | -80.38280 | 1863 ft | 96 kts | 121° |
| 2026-05-07 01:52 | 43.43923 | -80.37441 | 1948 ft | 104 kts | 121° |
| 2026-05-07 01:52 | 43.43752 | -80.36518 | 1992 ft | 98 kts | 70° |
| 2026-05-07 01:52 | 43.44261 | -80.36052 | 1956 ft | 93 kts | 347° |
| 2026-05-07 01:52 | 43.44709 | -80.36565 | 1740 ft | 79 kts | 311° |
| 2026-05-07 01:53 | 43.45071 | -80.37170 | 1444 ft | 81 kts | 312° |
| 2026-05-07 01:53 | 43.45449 | -80.37769 | 1158 ft | 82 kts | 310° |
| 2026-05-07 01:53 | 43.45782 | -80.38351 | 1040 ft | 69 kts | 310° |
| 2026-05-07 01:53 | 43.46052 | -80.38818 | 1039 ft | 57 kts | 314° |
| 2026-05-07 01:54 | 43.45753 | -80.38302 | 1036 ft | 0 kts | 310° |